sensor_id;sensor_type;location;lat;lon;timestamp;temperature;humidity
70947;DHT22;58605;48.700;8.760;2023-04-25T00:02:26;8.10;93.50
70947;DHT22;58605;48.700;8.760;2023-04-25T00:04:53;8.10;93.40
70947;DHT22;58605;48.700;8.760;2023-04-25T00:07:25;8.10;93.40
70947;DHT22;58605;48.700;8.760;2023-04-25T00:09:51;7.90;93.90
70947;DHT22;58605;48.700;8.760;2023-04-25T00:12:17;7.80;94.30
70947;DHT22;58605;48.700;8.760;2023-04-25T00:14:43;7.70;94.80
70947;DHT22;58605;48.700;8.760;2023-04-25T00:17:09;7.60;95.40
70947;DHT22;58605;48.700;8.760;2023-04-25T00:19:38;7.60;96.90
70947;DHT22;58605;48.700;8.760;2023-04-25T00:22:04;7.50;98.60
70947;DHT22;58605;48.700;8.760;2023-04-25T00:24:31;7.50;99.90
70947;DHT22;58605;48.700;8.760;2023-04-25T00:26:57;7.40;99.90
70947;DHT22;58605;48.700;8.760;2023-04-25T00:29:23;7.50;99.90
70947;DHT22;58605;48.700;8.760;2023-04-25T00:31:49;7.40;99.90
70947;DHT22;58605;48.700;8.760;2023-04-25T00:34:15;7.40;99.90
70947;DHT22;58605;48.700;8.760;2023-04-25T00:36:42;7.40;99.90
70947;DHT22;58605;48.700;8.760;2023-04-25T00:39:08;7.50;99.90
70947;DHT22;58605;48.700;8.760;2023-04-25T00:41:34;7.60;99.90
70947;DHT22;58605;48.700;8.760;2023-04-25T00:44:01;7.50;99.90
70947;DHT22;58605;48.700;8.760;2023-04-25T00:46:27;7.40;99.90
70947;DHT22;58605;48.700;8.760;2023-04-25T00:48:53;7.30;99.90
70947;DHT22;58605;48.700;8.760;2023-04-25T00:51:20;7.40;99.90
70947;DHT22;58605;48.700;8.760;2023-04-25T00:53:49;7.40;99.90
70947;DHT22;58605;48.700;8.760;2023-04-25T00:56:16;7.10;99.90
70947;DHT22;58605;48.700;8.760;2023-04-25T00:58:42;7.00;99.90
70947;DHT22;58605;48.700;8.760;2023-04-25T01:01:09;7.10;99.90
70947;DHT22;58605;48.700;8.760;2023-04-25T01:03:37;7.10;99.90
70947;DHT22;58605;48.700;8.760;2023-04-25T01:06:07;7.30;99.90
70947;DHT22;58605;48.700;8.760;2023-04-25T01:08:34;7.40;99.90
70947;DHT22;58605;48.700;8.760;2023-04-25T01:11:01;7.60;99.90
70947;DHT22;58605;48.700;8.760;2023-04-25T01:13:27;7.70;99.90
70947;DHT22;58605;48.700;8.760;2023-04-25T01:15:54;7.90;99.90
70947;DHT22;58605;48.700;8.760;2023-04-25T01:18:20;8.00;99.90
70947;DHT22;58605;48.700;8.760;2023-04-25T01:20:47;8.00;99.90
70947;DHT22;58605;48.700;8.760;2023-04-25T01:23:15;7.80;99.90
70947;DHT22;58605;48.700;8.760;2023-04-25T01:25:41;7.50;99.90
70947;DHT22;58605;48.700;8.760;2023-04-25T01:28:07;7.30;99.90
70947;DHT22;58605;48.700;8.760;2023-04-25T01:30:34;7.00;99.90
70947;DHT22;58605;48.700;8.760;2023-04-25T01:33:01;7.00;99.90
70947;DHT22;58605;48.700;8.760;2023-04-25T01:35:30;7.10;99.90
70947;DHT22;58605;48.700;8.760;2023-04-25T01:37:57;7.20;99.90
70947;DHT22;58605;48.700;8.760;2023-04-25T01:40:25;7.20;99.90
70947;DHT22;58605;48.700;8.760;2023-04-25T01:42:52;7.30;99.90
70947;DHT22;58605;48.700;8.760;2023-04-25T01:45:18;7.30;99.90
70947;DHT22;58605;48.700;8.760;2023-04-25T01:47:44;7.50;99.90
70947;DHT22;58605;48.700;8.760;2023-04-25T01:50:14;7.50;99.90
70947;DHT22;58605;48.700;8.760;2023-04-25T01:52:41;7.30;99.90
70947;DHT22;58605;48.700;8.760;2023-04-25T01:55:07;7.30;99.90
70947;DHT22;58605;48.700;8.760;2023-04-25T01:57:35;7.30;99.90
70947;DHT22;58605;48.700;8.760;2023-04-25T02:00:03;7.50;99.90
70947;DHT22;58605;48.700;8.760;2023-04-25T02:02:30;7.50;99.90
70947;DHT22;58605;48.700;8.760;2023-04-25T02:04:56;7.40;99.90
70947;DHT22;58605;48.700;8.760;2023-04-25T02:07:22;7.40;99.90
70947;DHT22;58605;48.700;8.760;2023-04-25T02:09:54;7.30;99.90
70947;DHT22;58605;48.700;8.760;2023-04-25T02:12:20;7.30;99.90
70947;DHT22;58605;48.700;8.760;2023-04-25T02:14:47;7.10;99.90
70947;DHT22;58605;48.700;8.760;2023-04-25T02:17:13;6.90;99.90
70947;DHT22;58605;48.700;8.760;2023-04-25T02:19:39;6.70;99.90
70947;DHT22;58605;48.700;8.760;2023-04-25T02:22:05;6.60;99.90
70947;DHT22;58605;48.700;8.760;2023-04-25T02:24:31;6.50;99.90
70947;DHT22;58605;48.700;8.760;2023-04-25T02:26:59;6.40;99.90
70947;DHT22;58605;48.700;8.760;2023-04-25T02:29:25;6.30;99.90
70947;DHT22;58605;48.700;8.760;2023-04-25T02:31:53;6.30;99.90
70947;DHT22;58605;48.700;8.760;2023-04-25T02:34:19;6.40;99.90
70947;DHT22;58605;48.700;8.760;2023-04-25T02:36:45;6.60;99.90
70947;DHT22;58605;48.700;8.760;2023-04-25T02:39:11;6.60;99.90
70947;DHT22;58605;48.700;8.760;2023-04-25T02:41:44;6.70;99.90
70947;DHT22;58605;48.700;8.760;2023-04-25T02:44:10;6.80;99.90
70947;DHT22;58605;48.700;8.760;2023-04-25T02:46:36;7.00;99.90
70947;DHT22;58605;48.700;8.760;2023-04-25T02:49:03;7.00;99.90
70947;DHT22;58605;48.700;8.760;2023-04-25T02:51:29;7.00;99.90
70947;DHT22;58605;48.700;8.760;2023-04-25T02:53:56;7.00;99.90
70947;DHT22;58605;48.700;8.760;2023-04-25T02:56:21;7.00;99.90
70947;DHT22;58605;48.700;8.760;2023-04-25T02:58:47;7.10;99.90
70947;DHT22;58605;48.700;8.760;2023-04-25T03:01:14;7.10;99.90
70947;DHT22;58605;48.700;8.760;2023-04-25T03:03:39;7.00;99.90
70947;DHT22;58605;48.700;8.760;2023-04-25T03:06:07;6.90;99.90
70947;DHT22;58605;48.700;8.760;2023-04-25T03:08:33;6.80;99.90
70947;DHT22;58605;48.700;8.760;2023-04-25T03:11:00;6.90;99.90
70947;DHT22;58605;48.700;8.760;2023-04-25T03:13:26;7.00;99.90
70947;DHT22;58605;48.700;8.760;2023-04-25T03:15:53;7.00;99.90
70947;DHT22;58605;48.700;8.760;2023-04-25T03:18:19;7.00;99.90
70947;DHT22;58605;48.700;8.760;2023-04-25T03:20:45;7.10;99.90
70947;DHT22;58605;48.700;8.760;2023-04-25T03:23:13;7.10;99.90
70947;DHT22;58605;48.700;8.760;2023-04-25T03:25:39;7.10;99.90
70947;DHT22;58605;48.700;8.760;2023-04-25T03:28:06;7.10;99.90
70947;DHT22;58605;48.700;8.760;2023-04-25T03:30:32;7.00;99.90
70947;DHT22;58605;48.700;8.760;2023-04-25T03:32:58;6.90;99.90
70947;DHT22;58605;48.700;8.760;2023-04-25T03:35:23;6.60;99.90
70947;DHT22;58605;48.700;8.760;2023-04-25T03:37:49;6.40;99.90
70947;DHT22;58605;48.700;8.760;2023-04-25T03:40:17;6.10;99.90
70947;DHT22;58605;48.700;8.760;2023-04-25T03:42:43;5.80;99.90
70947;DHT22;58605;48.700;8.760;2023-04-25T03:45:09;5.60;99.90
70947;DHT22;58605;48.700;8.760;2023-04-25T03:47:35;5.50;99.90
70947;DHT22;58605;48.700;8.760;2023-04-25T03:50:01;5.40;99.90
70947;DHT22;58605;48.700;8.760;2023-04-25T03:52:28;5.30;99.90
70947;DHT22;58605;48.700;8.760;2023-04-25T03:54:54;5.40;99.90
70947;DHT22;58605;48.700;8.760;2023-04-25T03:57:21;5.40;99.90
70947;DHT22;58605;48.700;8.760;2023-04-25T03:59:47;5.20;99.90
70947;DHT22;58605;48.700;8.760;2023-04-25T04:02:13;4.90;99.90
70947;DHT22;58605;48.700;8.760;2023-04-25T04:04:39;4.90;99.90
70947;DHT22;58605;48.700;8.760;2023-04-25T04:07:06;5.10;99.90
70947;DHT22;58605;48.700;8.760;2023-04-25T04:09:32;5.20;99.90
70947;DHT22;58605;48.700;8.760;2023-04-25T04:11:57;5.30;99.90
70947;DHT22;58605;48.700;8.760;2023-04-25T04:14:25;5.40;99.90
70947;DHT22;58605;48.700;8.760;2023-04-25T04:16:51;5.60;99.90
70947;DHT22;58605;48.700;8.760;2023-04-25T04:19:18;5.70;99.90
70947;DHT22;58605;48.700;8.760;2023-04-25T04:21:44;5.60;99.90
70947;DHT22;58605;48.700;8.760;2023-04-25T04:24:10;5.70;99.90
70947;DHT22;58605;48.700;8.760;2023-04-25T04:26:36;5.70;99.90
70947;DHT22;58605;48.700;8.760;2023-04-25T04:29:02;5.80;99.90
70947;DHT22;58605;48.700;8.760;2023-04-25T04:31:30;5.70;99.90
70947;DHT22;58605;48.700;8.760;2023-04-25T04:33:56;5.60;99.90
70947;DHT22;58605;48.700;8.760;2023-04-25T04:36:22;5.60;99.90
70947;DHT22;58605;48.700;8.760;2023-04-25T04:38:48;5.50;99.90
70947;DHT22;58605;48.700;8.760;2023-04-25T04:41:14;5.50;99.90
70947;DHT22;58605;48.700;8.760;2023-04-25T04:43:40;5.50;99.90
70947;DHT22;58605;48.700;8.760;2023-04-25T04:46:07;5.40;99.90
70947;DHT22;58605;48.700;8.760;2023-04-25T04:48:34;5.30;99.90
70947;DHT22;58605;48.700;8.760;2023-04-25T04:51:01;5.20;99.90
70947;DHT22;58605;48.700;8.760;2023-04-25T04:53:27;5.30;99.90
70947;DHT22;58605;48.700;8.760;2023-04-25T04:55:53;5.50;99.90
70947;DHT22;58605;48.700;8.760;2023-04-25T04:58:18;5.70;99.90
70947;DHT22;58605;48.700;8.760;2023-04-25T05:00:45;5.90;99.90
70947;DHT22;58605;48.700;8.760;2023-04-25T05:03:12;6.10;99.90
70947;DHT22;58605;48.700;8.760;2023-04-25T05:05:40;6.20;99.90
70947;DHT22;58605;48.700;8.760;2023-04-25T05:08:06;6.30;99.90
70947;DHT22;58605;48.700;8.760;2023-04-25T05:10:33;6.20;99.90
70947;DHT22;58605;48.700;8.760;2023-04-25T05:12:59;6.00;99.90
70947;DHT22;58605;48.700;8.760;2023-04-25T05:15:25;5.90;99.90
70947;DHT22;58605;48.700;8.760;2023-04-25T05:17:51;6.00;99.90
70947;DHT22;58605;48.700;8.760;2023-04-25T05:20:17;6.20;99.90
70947;DHT22;58605;48.700;8.760;2023-04-25T05:22:46;6.20;99.90
70947;DHT22;58605;48.700;8.760;2023-04-25T05:25:12;6.30;99.90
70947;DHT22;58605;48.700;8.760;2023-04-25T05:27:38;6.30;99.90
70947;DHT22;58605;48.700;8.760;2023-04-25T05:30:05;6.30;99.90
70947;DHT22;58605;48.700;8.760;2023-04-25T05:32:31;6.40;99.90
70947;DHT22;58605;48.700;8.760;2023-04-25T05:34:57;6.40;99.90
70947;DHT22;58605;48.700;8.760;2023-04-25T05:37:23;6.30;99.90
70947;DHT22;58605;48.700;8.760;2023-04-25T05:39:51;6.30;99.90
70947;DHT22;58605;48.700;8.760;2023-04-25T05:42:17;6.20;99.90
70947;DHT22;58605;48.700;8.760;2023-04-25T05:44:43;6.30;99.90
70947;DHT22;58605;48.700;8.760;2023-04-25T05:47:09;6.30;99.90
70947;DHT22;58605;48.700;8.760;2023-04-25T05:49:35;6.30;99.90
70947;DHT22;58605;48.700;8.760;2023-04-25T05:52:01;6.40;99.90
70947;DHT22;58605;48.700;8.760;2023-04-25T05:54:27;6.50;99.90
70947;DHT22;58605;48.700;8.760;2023-04-25T05:56:55;6.50;99.90
70947;DHT22;58605;48.700;8.760;2023-04-25T05:59:21;6.60;99.90
70947;DHT22;58605;48.700;8.760;2023-04-25T06:01:47;6.60;99.90
70947;DHT22;58605;48.700;8.760;2023-04-25T06:04:13;6.70;99.90
70947;DHT22;58605;48.700;8.760;2023-04-25T06:06:39;6.70;99.90
70947;DHT22;58605;48.700;8.760;2023-04-25T06:09:05;6.70;99.90
70947;DHT22;58605;48.700;8.760;2023-04-25T06:11:31;6.80;99.90
70947;DHT22;58605;48.700;8.760;2023-04-25T06:13:59;6.70;99.90
70947;DHT22;58605;48.700;8.760;2023-04-25T06:16:25;6.70;99.90
70947;DHT22;58605;48.700;8.760;2023-04-25T06:18:51;6.70;99.90
70947;DHT22;58605;48.700;8.760;2023-04-25T06:21:17;6.70;99.90
70947;DHT22;58605;48.700;8.760;2023-04-25T06:23:43;6.70;99.90
70947;DHT22;58605;48.700;8.760;2023-04-25T06:26:09;6.70;99.90
70947;DHT22;58605;48.700;8.760;2023-04-25T06:28:35;6.60;99.90
70947;DHT22;58605;48.700;8.760;2023-04-25T06:31:03;6.60;99.90
70947;DHT22;58605;48.700;8.760;2023-04-25T06:33:29;6.60;99.90
70947;DHT22;58605;48.700;8.760;2023-04-25T06:35:55;6.60;99.90
70947;DHT22;58605;48.700;8.760;2023-04-25T06:38:21;6.60;99.90
70947;DHT22;58605;48.700;8.760;2023-04-25T06:40:47;6.60;99.90
70947;DHT22;58605;48.700;8.760;2023-04-25T06:43:13;6.70;99.90
70947;DHT22;58605;48.700;8.760;2023-04-25T06:45:39;6.60;99.90
70947;DHT22;58605;48.700;8.760;2023-04-25T06:48:06;6.50;99.90
70947;DHT22;58605;48.700;8.760;2023-04-25T06:50:33;6.60;99.90
70947;DHT22;58605;48.700;8.760;2023-04-25T06:52:59;6.60;99.90
70947;DHT22;58605;48.700;8.760;2023-04-25T06:55:27;6.70;99.90
70947;DHT22;58605;48.700;8.760;2023-04-25T06:57:53;6.80;99.90
70947;DHT22;58605;48.700;8.760;2023-04-25T07:00:20;6.80;99.90
70947;DHT22;58605;48.700;8.760;2023-04-25T07:02:46;6.80;99.90
70947;DHT22;58605;48.700;8.760;2023-04-25T07:05:13;6.80;99.90
70947;DHT22;58605;48.700;8.760;2023-04-25T07:07:39;6.90;99.90
70947;DHT22;58605;48.700;8.760;2023-04-25T07:10:06;7.00;99.90
70947;DHT22;58605;48.700;8.760;2023-04-25T07:12:32;7.10;99.90
70947;DHT22;58605;48.700;8.760;2023-04-25T07:14:58;7.10;99.90
70947;DHT22;58605;48.700;8.760;2023-04-25T07:17:24;7.10;99.90
70947;DHT22;58605;48.700;8.760;2023-04-25T07:19:50;7.20;99.90
70947;DHT22;58605;48.700;8.760;2023-04-25T07:22:17;7.30;99.90
70947;DHT22;58605;48.700;8.760;2023-04-25T07:24:44;7.40;99.90
70947;DHT22;58605;48.700;8.760;2023-04-25T07:27:14;7.40;99.90
70947;DHT22;58605;48.700;8.760;2023-04-25T07:29:40;7.50;99.90
70947;DHT22;58605;48.700;8.760;2023-04-25T07:32:06;7.40;99.90
70947;DHT22;58605;48.700;8.760;2023-04-25T07:34:33;7.40;99.90
70947;DHT22;58605;48.700;8.760;2023-04-25T07:37:02;7.40;99.90
70947;DHT22;58605;48.700;8.760;2023-04-25T07:39:30;7.30;99.90
70947;DHT22;58605;48.700;8.760;2023-04-25T07:41:56;7.20;99.90
70947;DHT22;58605;48.700;8.760;2023-04-25T07:44:24;7.30;99.90
70947;DHT22;58605;48.700;8.760;2023-04-25T07:46:50;7.40;99.90
70947;DHT22;58605;48.700;8.760;2023-04-25T07:49:16;7.50;99.90
70947;DHT22;58605;48.700;8.760;2023-04-25T07:51:42;7.50;99.90
70947;DHT22;58605;48.700;8.760;2023-04-25T07:54:09;7.50;99.90
70947;DHT22;58605;48.700;8.760;2023-04-25T07:56:36;7.60;99.90
70947;DHT22;58605;48.700;8.760;2023-04-25T07:59:02;7.50;99.90
70947;DHT22;58605;48.700;8.760;2023-04-25T08:01:28;7.40;99.90
70947;DHT22;58605;48.700;8.760;2023-04-25T08:03:54;7.50;99.90
70947;DHT22;58605;48.700;8.760;2023-04-25T08:06:20;7.50;99.90
70947;DHT22;58605;48.700;8.760;2023-04-25T08:08:46;7.60;99.90
70947;DHT22;58605;48.700;8.760;2023-04-25T08:11:12;7.60;99.90
70947;DHT22;58605;48.700;8.760;2023-04-25T08:13:39;7.50;99.90
70947;DHT22;58605;48.700;8.760;2023-04-25T08:16:05;7.60;99.90
70947;DHT22;58605;48.700;8.760;2023-04-25T08:18:31;7.60;99.90
70947;DHT22;58605;48.700;8.760;2023-04-25T08:20:57;7.50;99.90
70947;DHT22;58605;48.700;8.760;2023-04-25T08:23:23;7.50;99.90
70947;DHT22;58605;48.700;8.760;2023-04-25T08:25:49;7.40;99.90
70947;DHT22;58605;48.700;8.760;2023-04-25T08:28:15;7.50;99.90
70947;DHT22;58605;48.700;8.760;2023-04-25T08:30:43;7.50;99.90
70947;DHT22;58605;48.700;8.760;2023-04-25T08:33:09;7.40;99.90
70947;DHT22;58605;48.700;8.760;2023-04-25T08:35:35;7.40;99.90
70947;DHT22;58605;48.700;8.760;2023-04-25T08:38:01;7.50;99.90
70947;DHT22;58605;48.700;8.760;2023-04-25T08:40:28;7.50;99.90
70947;DHT22;58605;48.700;8.760;2023-04-25T08:42:57;7.50;99.90
70947;DHT22;58605;48.700;8.760;2023-04-25T08:45:26;7.50;99.90
70947;DHT22;58605;48.700;8.760;2023-04-25T08:47:54;7.40;99.90
70947;DHT22;58605;48.700;8.760;2023-04-25T08:50:23;7.40;99.90
70947;DHT22;58605;48.700;8.760;2023-04-25T08:52:50;7.40;99.90
70947;DHT22;58605;48.700;8.760;2023-04-25T08:55:18;7.20;99.90
70947;DHT22;58605;48.700;8.760;2023-04-25T08:57:44;7.30;99.90
70947;DHT22;58605;48.700;8.760;2023-04-25T09:00:12;7.30;99.90
70947;DHT22;58605;48.700;8.760;2023-04-25T09:02:39;7.30;99.90
70947;DHT22;58605;48.700;8.760;2023-04-25T09:05:08;7.30;99.90
70947;DHT22;58605;48.700;8.760;2023-04-25T09:07:35;7.40;99.90
70947;DHT22;58605;48.700;8.760;2023-04-25T09:10:01;7.30;99.90
70947;DHT22;58605;48.700;8.760;2023-04-25T09:12:29;7.30;99.90
70947;DHT22;58605;48.700;8.760;2023-04-25T09:15:06;7.40;99.90
70947;DHT22;58605;48.700;8.760;2023-04-25T09:17:33;7.30;99.90
70947;DHT22;58605;48.700;8.760;2023-04-25T09:20:08;7.30;99.90
70947;DHT22;58605;48.700;8.760;2023-04-25T09:22:35;7.50;99.90
70947;DHT22;58605;48.700;8.760;2023-04-25T09:25:03;7.50;99.90
70947;DHT22;58605;48.700;8.760;2023-04-25T09:27:29;7.40;99.90
70947;DHT22;58605;48.700;8.760;2023-04-25T09:29:58;7.40;99.90
70947;DHT22;58605;48.700;8.760;2023-04-25T09:32:27;7.30;99.90
70947;DHT22;58605;48.700;8.760;2023-04-25T09:34:54;7.20;99.90
70947;DHT22;58605;48.700;8.760;2023-04-25T09:37:24;7.20;99.90
70947;DHT22;58605;48.700;8.760;2023-04-25T09:39:52;7.20;99.90
70947;DHT22;58605;48.700;8.760;2023-04-25T09:42:18;7.10;99.90
70947;DHT22;58605;48.700;8.760;2023-04-25T09:44:47;7.10;99.90
70947;DHT22;58605;48.700;8.760;2023-04-25T09:47:14;7.20;99.90
70947;DHT22;58605;48.700;8.760;2023-04-25T09:49:47;7.30;99.90
70947;DHT22;58605;48.700;8.760;2023-04-25T09:52:18;7.40;99.90
70947;DHT22;58605;48.700;8.760;2023-04-25T09:54:46;7.60;99.90
70947;DHT22;58605;48.700;8.760;2023-04-25T09:57:13;7.80;99.90
70947;DHT22;58605;48.700;8.760;2023-04-25T09:59:43;8.00;99.90
70947;DHT22;58605;48.700;8.760;2023-04-25T10:02:11;8.20;99.90
70947;DHT22;58605;48.700;8.760;2023-04-25T10:04:38;8.40;99.90
70947;DHT22;58605;48.700;8.760;2023-04-25T10:07:05;8.50;99.90
70947;DHT22;58605;48.700;8.760;2023-04-25T10:09:33;8.60;99.90
70947;DHT22;58605;48.700;8.760;2023-04-25T10:12:01;8.60;99.90
70947;DHT22;58605;48.700;8.760;2023-04-25T10:14:29;8.60;99.90
70947;DHT22;58605;48.700;8.760;2023-04-25T10:16:56;8.70;99.90
70947;DHT22;58605;48.700;8.760;2023-04-25T10:19:23;8.70;99.90
70947;DHT22;58605;48.700;8.760;2023-04-25T10:21:52;8.70;99.90
70947;DHT22;58605;48.700;8.760;2023-04-25T10:24:20;8.70;99.90
70947;DHT22;58605;48.700;8.760;2023-04-25T10:26:46;8.70;99.90
70947;DHT22;58605;48.700;8.760;2023-04-25T10:29:21;8.50;99.90
70947;DHT22;58605;48.700;8.760;2023-04-25T10:31:48;8.50;99.90
70947;DHT22;58605;48.700;8.760;2023-04-25T10:34:15;8.60;99.90
70947;DHT22;58605;48.700;8.760;2023-04-25T10:36:41;8.70;99.90
70947;DHT22;58605;48.700;8.760;2023-04-25T10:39:08;8.60;99.90
70947;DHT22;58605;48.700;8.760;2023-04-25T10:41:47;8.50;99.90
70947;DHT22;58605;48.700;8.760;2023-04-25T10:44:15;8.40;99.90
70947;DHT22;58605;48.700;8.760;2023-04-25T10:46:48;8.60;99.90
70947;DHT22;58605;48.700;8.760;2023-04-25T10:49:32;8.50;99.90
70947;DHT22;58605;48.700;8.760;2023-04-25T10:52:15;8.60;99.90
70947;DHT22;58605;48.700;8.760;2023-04-25T10:54:48;8.60;99.90
70947;DHT22;58605;48.700;8.760;2023-04-25T10:57:37;8.60;99.90
70947;DHT22;58605;48.700;8.760;2023-04-25T11:00:13;8.70;99.90
70947;DHT22;58605;48.700;8.760;2023-04-25T11:02:42;8.70;99.90
70947;DHT22;58605;48.700;8.760;2023-04-25T11:05:09;8.60;99.90
70947;DHT22;58605;48.700;8.760;2023-04-25T11:07:38;8.50;99.90
70947;DHT22;58605;48.700;8.760;2023-04-25T11:10:09;8.50;99.90
70947;DHT22;58605;48.700;8.760;2023-04-25T11:12:36;8.50;99.90
70947;DHT22;58605;48.700;8.760;2023-04-25T11:15:03;8.40;99.90
70947;DHT22;58605;48.700;8.760;2023-04-25T11:17:31;8.00;99.90
70947;DHT22;58605;48.700;8.760;2023-04-25T11:19:57;7.80;99.90
70947;DHT22;58605;48.700;8.760;2023-04-25T11:22:24;7.50;99.90
70947;DHT22;58605;48.700;8.760;2023-04-25T11:24:50;7.10;99.90
70947;DHT22;58605;48.700;8.760;2023-04-25T11:27:16;7.00;99.90
70947;DHT22;58605;48.700;8.760;2023-04-25T11:29:42;6.80;99.90
70947;DHT22;58605;48.700;8.760;2023-04-25T11:32:08;6.70;99.90
70947;DHT22;58605;48.700;8.760;2023-04-25T11:34:36;6.30;99.90
70947;DHT22;58605;48.700;8.760;2023-04-25T11:37:03;6.20;99.90
70947;DHT22;58605;48.700;8.760;2023-04-25T11:39:29;6.00;99.90
70947;DHT22;58605;48.700;8.760;2023-04-25T11:41:56;5.80;99.90
70947;DHT22;58605;48.700;8.760;2023-04-25T11:44:22;5.70;99.90
70947;DHT22;58605;48.700;8.760;2023-04-25T11:46:48;5.70;99.90
70947;DHT22;58605;48.700;8.760;2023-04-25T11:49:14;5.60;99.90
70947;DHT22;58605;48.700;8.760;2023-04-25T11:51:49;5.60;99.90
70947;DHT22;58605;48.700;8.760;2023-04-25T11:54:15;5.70;99.90
70947;DHT22;58605;48.700;8.760;2023-04-25T11:56:41;5.80;99.90
70947;DHT22;58605;48.700;8.760;2023-04-25T11:59:08;5.80;99.90
70947;DHT22;58605;48.700;8.760;2023-04-25T12:01:36;5.80;99.90
70947;DHT22;58605;48.700;8.760;2023-04-25T12:04:12;6.00;99.90
70947;DHT22;58605;48.700;8.760;2023-04-25T12:06:38;6.20;99.90
70947;DHT22;58605;48.700;8.760;2023-04-25T12:09:11;6.30;99.90
70947;DHT22;58605;48.700;8.760;2023-04-25T12:11:42;6.20;99.90
70947;DHT22;58605;48.700;8.760;2023-04-25T12:14:09;6.30;99.90
70947;DHT22;58605;48.700;8.760;2023-04-25T12:16:42;6.30;99.90
70947;DHT22;58605;48.700;8.760;2023-04-25T12:19:08;6.50;99.90
70947;DHT22;58605;48.700;8.760;2023-04-25T12:21:34;6.50;99.90
70947;DHT22;58605;48.700;8.760;2023-04-25T12:24:11;6.70;99.90
70947;DHT22;58605;48.700;8.760;2023-04-25T12:26:51;6.80;99.90
70947;DHT22;58605;48.700;8.760;2023-04-25T12:29:18;6.90;99.90
70947;DHT22;58605;48.700;8.760;2023-04-25T12:31:44;7.20;99.90
70947;DHT22;58605;48.700;8.760;2023-04-25T12:34:11;7.50;99.90
70947;DHT22;58605;48.700;8.760;2023-04-25T12:36:37;7.60;99.90
70947;DHT22;58605;48.700;8.760;2023-04-25T12:39:04;7.70;99.90
70947;DHT22;58605;48.700;8.760;2023-04-25T12:41:31;7.80;99.90
70947;DHT22;58605;48.700;8.760;2023-04-25T12:43:57;7.70;99.90
70947;DHT22;58605;48.700;8.760;2023-04-25T12:46:23;7.70;99.90
70947;DHT22;58605;48.700;8.760;2023-04-25T12:48:49;7.90;99.90
70947;DHT22;58605;48.700;8.760;2023-04-25T12:51:23;7.80;99.90
70947;DHT22;58605;48.700;8.760;2023-04-25T12:53:51;7.90;99.90
70947;DHT22;58605;48.700;8.760;2023-04-25T12:56:18;8.10;99.90
70947;DHT22;58605;48.700;8.760;2023-04-25T12:58:45;8.20;99.90
70947;DHT22;58605;48.700;8.760;2023-04-25T13:01:12;8.30;99.90
70947;DHT22;58605;48.700;8.760;2023-04-25T13:03:39;8.40;99.90
70947;DHT22;58605;48.700;8.760;2023-04-25T13:06:06;8.70;99.90
70947;DHT22;58605;48.700;8.760;2023-04-25T13:08:32;8.90;99.90
70947;DHT22;58605;48.700;8.760;2023-04-25T13:10:58;9.20;99.90
70947;DHT22;58605;48.700;8.760;2023-04-25T13:13:24;9.20;99.90
70947;DHT22;58605;48.700;8.760;2023-04-25T13:15:54;9.30;99.90
70947;DHT22;58605;48.700;8.760;2023-04-25T13:18:20;9.20;99.90
70947;DHT22;58605;48.700;8.760;2023-04-25T13:20:46;9.00;99.90
70947;DHT22;58605;48.700;8.760;2023-04-25T13:23:19;8.90;99.90
70947;DHT22;58605;48.700;8.760;2023-04-25T13:25:45;9.00;99.90
70947;DHT22;58605;48.700;8.760;2023-04-25T13:28:12;9.10;99.90
70947;DHT22;58605;48.700;8.760;2023-04-25T13:30:38;8.80;99.20
70947;DHT22;58605;48.700;8.760;2023-04-25T13:33:05;8.70;99.90
70947;DHT22;58605;48.700;8.760;2023-04-25T13:35:32;8.60;99.90
70947;DHT22;58605;48.700;8.760;2023-04-25T13:37:59;8.50;99.90
70947;DHT22;58605;48.700;8.760;2023-04-25T13:40:25;8.40;99.90
70947;DHT22;58605;48.700;8.760;2023-04-25T13:42:52;8.40;99.90
70947;DHT22;58605;48.700;8.760;2023-04-25T13:45:18;8.60;99.90
70947;DHT22;58605;48.700;8.760;2023-04-25T13:47:54;8.40;99.90
70947;DHT22;58605;48.700;8.760;2023-04-25T13:50:22;8.30;99.90
70947;DHT22;58605;48.700;8.760;2023-04-25T13:52:48;8.30;99.90
70947;DHT22;58605;48.700;8.760;2023-04-25T13:55:14;8.40;99.90
70947;DHT22;58605;48.700;8.760;2023-04-25T13:57:40;8.70;99.90
70947;DHT22;58605;48.700;8.760;2023-04-25T14:00:08;8.70;99.90
70947;DHT22;58605;48.700;8.760;2023-04-25T14:02:34;8.40;99.90
70947;DHT22;58605;48.700;8.760;2023-04-25T14:05:00;8.40;99.80
70947;DHT22;58605;48.700;8.760;2023-04-25T14:07:28;8.20;99.90
70947;DHT22;58605;48.700;8.760;2023-04-25T14:09:54;8.40;99.90
70947;DHT22;58605;48.700;8.760;2023-04-25T14:12:20;8.60;99.90
70947;DHT22;58605;48.700;8.760;2023-04-25T14:14:46;8.90;99.90
70947;DHT22;58605;48.700;8.760;2023-04-25T14:17:12;9.00;97.40
70947;DHT22;58605;48.700;8.760;2023-04-25T14:19:38;8.90;93.60
70947;DHT22;58605;48.700;8.760;2023-04-25T14:22:08;9.10;96.30
70947;DHT22;58605;48.700;8.760;2023-04-25T14:24:36;9.30;94.80
70947;DHT22;58605;48.700;8.760;2023-04-25T14:27:02;9.50;93.10
70947;DHT22;58605;48.700;8.760;2023-04-25T14:29:28;9.60;92.00
70947;DHT22;58605;48.700;8.760;2023-04-25T14:31:54;9.80;92.20
70947;DHT22;58605;48.700;8.760;2023-04-25T14:34:23;9.80;90.90
70947;DHT22;58605;48.700;8.760;2023-04-25T14:36:49;9.80;91.60
70947;DHT22;58605;48.700;8.760;2023-04-25T14:39:16;9.80;91.90
70947;DHT22;58605;48.700;8.760;2023-04-25T14:41:44;10.00;91.60
70947;DHT22;58605;48.700;8.760;2023-04-25T14:44:10;10.00;91.80
70947;DHT22;58605;48.700;8.760;2023-04-25T14:46:36;9.90;92.50
70947;DHT22;58605;48.700;8.760;2023-04-25T14:49:02;9.80;92.30
70947;DHT22;58605;48.700;8.760;2023-04-25T14:51:28;9.80;92.70
70947;DHT22;58605;48.700;8.760;2023-04-25T14:53:55;10.00;92.90
70947;DHT22;58605;48.700;8.760;2023-04-25T14:56:21;10.20;90.90
70947;DHT22;58605;48.700;8.760;2023-04-25T14:58:49;10.30;86.50
70947;DHT22;58605;48.700;8.760;2023-04-25T15:01:15;10.40;85.20
70947;DHT22;58605;48.700;8.760;2023-04-25T15:03:41;10.50;82.40
70947;DHT22;58605;48.700;8.760;2023-04-25T15:06:07;10.20;82.80
70947;DHT22;58605;48.700;8.760;2023-04-25T15:08:33;10.00;83.60
70947;DHT22;58605;48.700;8.760;2023-04-25T15:10:59;10.10;86.60
70947;DHT22;58605;48.700;8.760;2023-04-25T15:13:26;10.20;84.10
70947;DHT22;58605;48.700;8.760;2023-04-25T15:15:53;10.30;83.10
70947;DHT22;58605;48.700;8.760;2023-04-25T15:18:21;10.20;82.20
70947;DHT22;58605;48.700;8.760;2023-04-25T15:20:50;10.10;82.80
70947;DHT22;58605;48.700;8.760;2023-04-25T15:23:17;9.90;83.40
70947;DHT22;58605;48.700;8.760;2023-04-25T15:25:42;9.90;84.30
70947;DHT22;58605;48.700;8.760;2023-04-25T15:28:08;9.90;85.50
70947;DHT22;58605;48.700;8.760;2023-04-25T15:30:34;10.10;84.90
70947;DHT22;58605;48.700;8.760;2023-04-25T15:33:02;10.30;83.80
70947;DHT22;58605;48.700;8.760;2023-04-25T15:35:28;10.50;82.20
70947;DHT22;58605;48.700;8.760;2023-04-25T15:37:54;10.70;82.70
70947;DHT22;58605;48.700;8.760;2023-04-25T15:40:20;10.70;81.90
70947;DHT22;58605;48.700;8.760;2023-04-25T15:42:48;10.70;82.70
70947;DHT22;58605;48.700;8.760;2023-04-25T15:45:19;10.80;81.90